sensor_id;sensor_type;location;lat;lon;timestamp;temperature;humidity
14600;DHT22;7386;45.586;12.854;2022-10-20T00:02:10;16.40;99.90
14600;DHT22;7386;45.586;12.854;2022-10-20T00:04:39;16.40;99.90
14600;DHT22;7386;45.586;12.854;2022-10-20T00:07:07;16.40;99.90
14600;DHT22;7386;45.586;12.854;2022-10-20T00:09:37;16.30;99.90
14600;DHT22;7386;45.586;12.854;2022-10-20T00:12:05;16.30;99.90
14600;DHT22;7386;45.586;12.854;2022-10-20T00:14:33;16.30;99.90
14600;DHT22;7386;45.586;12.854;2022-10-20T00:17:02;16.20;99.90
14600;DHT22;7386;45.586;12.854;2022-10-20T00:19:31;16.10;99.90
14600;DHT22;7386;45.586;12.854;2022-10-20T00:21:59;16.10;99.90
14600;DHT22;7386;45.586;12.854;2022-10-20T00:24:27;16.10;99.90
14600;DHT22;7386;45.586;12.854;2022-10-20T00:26:57;16.00;99.90
14600;DHT22;7386;45.586;12.854;2022-10-20T00:29:25;16.00;99.90
14600;DHT22;7386;45.586;12.854;2022-10-20T00:31:53;16.00;99.90
14600;DHT22;7386;45.586;12.854;2022-10-20T00:34:21;15.90;99.90
14600;DHT22;7386;45.586;12.854;2022-10-20T00:36:50;15.90;99.90
14600;DHT22;7386;45.586;12.854;2022-10-20T00:39:18;15.90;99.90
14600;DHT22;7386;45.586;12.854;2022-10-20T00:41:47;15.90;99.90
14600;DHT22;7386;45.586;12.854;2022-10-20T00:44:46;15.90;99.90
14600;DHT22;7386;45.586;12.854;2022-10-20T00:47:18;15.80;99.90
14600;DHT22;7386;45.586;12.854;2022-10-20T00:49:49;16.00;99.90
14600;DHT22;7386;45.586;12.854;2022-10-20T00:52:19;15.80;99.90
14600;DHT22;7386;45.586;12.854;2022-10-20T00:54:49;15.80;99.90
14600;DHT22;7386;45.586;12.854;2022-10-20T00:57:17;15.80;99.90
14600;DHT22;7386;45.586;12.854;2022-10-20T00:59:47;15.80;99.90
14600;DHT22;7386;45.586;12.854;2022-10-20T01:02:15;15.80;99.90
14600;DHT22;7386;45.586;12.854;2022-10-20T01:04:43;15.80;99.90
14600;DHT22;7386;45.586;12.854;2022-10-20T01:07:12;15.80;99.90
14600;DHT22;7386;45.586;12.854;2022-10-20T01:09:40;15.80;99.90
14600;DHT22;7386;45.586;12.854;2022-10-20T01:12:18;15.80;99.90
14600;DHT22;7386;45.586;12.854;2022-10-20T01:14:56;15.80;99.90
14600;DHT22;7386;45.586;12.854;2022-10-20T01:17:38;15.80;99.90
14600;DHT22;7386;45.586;12.854;2022-10-20T01:23:42;15.80;99.90
14600;DHT22;7386;45.586;12.854;2022-10-20T01:26:33;15.80;99.90
14600;DHT22;7386;45.586;12.854;2022-10-20T01:29:09;15.80;99.90
14600;DHT22;7386;45.586;12.854;2022-10-20T01:31:43;15.90;99.90
14600;DHT22;7386;45.586;12.854;2022-10-20T01:34:20;15.80;99.90
14600;DHT22;7386;45.586;12.854;2022-10-20T01:36:57;15.80;99.90
14600;DHT22;7386;45.586;12.854;2022-10-20T01:39:30;15.80;99.90
14600;DHT22;7386;45.586;12.854;2022-10-20T01:42:05;15.70;99.90
14600;DHT22;7386;45.586;12.854;2022-10-20T01:44:36;15.50;99.90
14600;DHT22;7386;45.586;12.854;2022-10-20T01:47:05;15.70;99.90
14600;DHT22;7386;45.586;12.854;2022-10-20T01:49:34;15.70;99.90
14600;DHT22;7386;45.586;12.854;2022-10-20T01:52:03;15.70;99.90
14600;DHT22;7386;45.586;12.854;2022-10-20T01:54:31;15.70;99.90
14600;DHT22;7386;45.586;12.854;2022-10-20T01:57:10;15.70;99.90
14600;DHT22;7386;45.586;12.854;2022-10-20T01:59:47;15.70;99.90
14600;DHT22;7386;45.586;12.854;2022-10-20T02:02:33;15.60;99.90
14600;DHT22;7386;45.586;12.854;2022-10-20T02:05:27;15.70;99.90
14600;DHT22;7386;45.586;12.854;2022-10-20T02:08:01;15.60;99.90
14600;DHT22;7386;45.586;12.854;2022-10-20T02:10:40;15.60;99.90
14600;DHT22;7386;45.586;12.854;2022-10-20T02:13:12;15.50;99.90
14600;DHT22;7386;45.586;12.854;2022-10-20T02:15:45;15.50;99.90
14600;DHT22;7386;45.586;12.854;2022-10-20T02:18:17;15.60;99.90
14600;DHT22;7386;45.586;12.854;2022-10-20T02:20:49;15.50;99.90
14600;DHT22;7386;45.586;12.854;2022-10-20T02:23:19;15.50;99.90
14600;DHT22;7386;45.586;12.854;2022-10-20T02:25:48;15.50;99.90
14600;DHT22;7386;45.586;12.854;2022-10-20T02:28:19;15.60;99.90
14600;DHT22;7386;45.586;12.854;2022-10-20T02:30:50;15.50;99.90
14600;DHT22;7386;45.586;12.854;2022-10-20T02:33:19;15.50;99.90
14600;DHT22;7386;45.586;12.854;2022-10-20T02:35:50;15.50;99.90
14600;DHT22;7386;45.586;12.854;2022-10-20T02:38:22;15.50;99.90
14600;DHT22;7386;45.586;12.854;2022-10-20T02:40:50;15.50;99.90
14600;DHT22;7386;45.586;12.854;2022-10-20T02:43:18;15.50;99.90
14600;DHT22;7386;45.586;12.854;2022-10-20T02:45:46;15.50;99.90
14600;DHT22;7386;45.586;12.854;2022-10-20T02:48:16;15.40;99.90
14600;DHT22;7386;45.586;12.854;2022-10-20T02:50:44;15.40;99.90
14600;DHT22;7386;45.586;12.854;2022-10-20T02:53:12;15.40;99.90
14600;DHT22;7386;45.586;12.854;2022-10-20T02:55:41;15.40;99.90
14600;DHT22;7386;45.586;12.854;2022-10-20T02:58:09;15.40;99.90
14600;DHT22;7386;45.586;12.854;2022-10-20T03:00:38;15.40;99.90
14600;DHT22;7386;45.586;12.854;2022-10-20T03:03:06;15.30;99.90
14600;DHT22;7386;45.586;12.854;2022-10-20T03:05:39;15.40;99.90
14600;DHT22;7386;45.586;12.854;2022-10-20T03:08:10;15.30;99.90
14600;DHT22;7386;45.586;12.854;2022-10-20T03:10:39;15.30;99.90
14600;DHT22;7386;45.586;12.854;2022-10-20T03:13:08;15.30;99.90
14600;DHT22;7386;45.586;12.854;2022-10-20T03:15:36;15.30;99.90
14600;DHT22;7386;45.586;12.854;2022-10-20T03:18:05;15.20;99.90
14600;DHT22;7386;45.586;12.854;2022-10-20T03:20:33;15.30;99.90
14600;DHT22;7386;45.586;12.854;2022-10-20T03:23:03;15.20;99.90
14600;DHT22;7386;45.586;12.854;2022-10-20T03:25:31;15.20;99.90
14600;DHT22;7386;45.586;12.854;2022-10-20T03:27:59;15.20;99.90
14600;DHT22;7386;45.586;12.854;2022-10-20T03:30:27;15.20;99.90
14600;DHT22;7386;45.586;12.854;2022-10-20T03:32:55;15.30;99.90
14600;DHT22;7386;45.586;12.854;2022-10-20T03:35:23;15.30;99.90
14600;DHT22;7386;45.586;12.854;2022-10-20T03:37:52;15.30;99.90
14600;DHT22;7386;45.586;12.854;2022-10-20T03:40:21;15.30;99.90
14600;DHT22;7386;45.586;12.854;2022-10-20T03:42:49;15.30;99.90
14600;DHT22;7386;45.586;12.854;2022-10-20T03:45:18;15.30;99.90
14600;DHT22;7386;45.586;12.854;2022-10-20T03:47:46;15.30;99.90
14600;DHT22;7386;45.586;12.854;2022-10-20T03:50:14;15.20;99.90
14600;DHT22;7386;45.586;12.854;2022-10-20T03:52:42;15.20;99.90
14600;DHT22;7386;45.586;12.854;2022-10-20T03:55:11;15.20;99.90
14600;DHT22;7386;45.586;12.854;2022-10-20T03:57:40;15.20;99.90
14600;DHT22;7386;45.586;12.854;2022-10-20T04:00:10;15.20;99.90
14600;DHT22;7386;45.586;12.854;2022-10-20T04:02:40;15.20;99.90
14600;DHT22;7386;45.586;12.854;2022-10-20T04:05:11;15.10;99.90
14600;DHT22;7386;45.586;12.854;2022-10-20T04:07:40;15.10;99.90
14600;DHT22;7386;45.586;12.854;2022-10-20T04:10:10;15.10;99.90
14600;DHT22;7386;45.586;12.854;2022-10-20T04:12:40;15.10;99.90
14600;DHT22;7386;45.586;12.854;2022-10-20T04:15:10;15.10;99.90
14600;DHT22;7386;45.586;12.854;2022-10-20T04:17:38;15.10;99.90
14600;DHT22;7386;45.586;12.854;2022-10-20T04:20:07;15.10;99.90
14600;DHT22;7386;45.586;12.854;2022-10-20T04:22:35;15.10;99.90
14600;DHT22;7386;45.586;12.854;2022-10-20T04:25:05;15.10;99.90
14600;DHT22;7386;45.586;12.854;2022-10-20T04:27:33;15.00;99.90
14600;DHT22;7386;45.586;12.854;2022-10-20T04:30:04;15.10;99.90
14600;DHT22;7386;45.586;12.854;2022-10-20T04:32:33;15.00;99.90
14600;DHT22;7386;45.586;12.854;2022-10-20T04:35:01;15.00;99.90
14600;DHT22;7386;45.586;12.854;2022-10-20T04:37:29;15.00;99.90
14600;DHT22;7386;45.586;12.854;2022-10-20T04:39:58;15.00;99.90
14600;DHT22;7386;45.586;12.854;2022-10-20T04:42:26;15.00;99.90
14600;DHT22;7386;45.586;12.854;2022-10-20T04:44:54;14.90;99.90
14600;DHT22;7386;45.586;12.854;2022-10-20T04:47:24;15.00;99.90
14600;DHT22;7386;45.586;12.854;2022-10-20T04:49:53;15.00;99.90
14600;DHT22;7386;45.586;12.854;2022-10-20T04:52:21;15.00;99.90
14600;DHT22;7386;45.586;12.854;2022-10-20T04:54:49;14.90;99.90
14600;DHT22;7386;45.586;12.854;2022-10-20T04:57:17;14.90;99.90
14600;DHT22;7386;45.586;12.854;2022-10-20T04:59:46;15.00;99.90
14600;DHT22;7386;45.586;12.854;2022-10-20T05:02:14;15.00;99.90
14600;DHT22;7386;45.586;12.854;2022-10-20T05:04:45;14.90;99.90
14600;DHT22;7386;45.586;12.854;2022-10-20T05:07:13;15.00;99.90
14600;DHT22;7386;45.586;12.854;2022-10-20T05:09:41;15.00;99.90
14600;DHT22;7386;45.586;12.854;2022-10-20T05:12:10;15.10;99.90
14600;DHT22;7386;45.586;12.854;2022-10-20T05:14:38;15.10;99.90
14600;DHT22;7386;45.586;12.854;2022-10-20T05:17:06;15.10;99.90
14600;DHT22;7386;45.586;12.854;2022-10-20T05:19:35;15.10;99.90
14600;DHT22;7386;45.586;12.854;2022-10-20T05:22:05;15.10;99.90
14600;DHT22;7386;45.586;12.854;2022-10-20T05:24:33;15.20;99.90
14600;DHT22;7386;45.586;12.854;2022-10-20T05:27:02;15.20;99.90
14600;DHT22;7386;45.586;12.854;2022-10-20T05:29:30;15.30;99.90
14600;DHT22;7386;45.586;12.854;2022-10-20T05:31:58;15.30;99.90
14600;DHT22;7386;45.586;12.854;2022-10-20T05:34:26;15.40;99.90
14600;DHT22;7386;45.586;12.854;2022-10-20T05:36:55;15.40;99.90
14600;DHT22;7386;45.586;12.854;2022-10-20T05:39:24;15.50;99.90
14600;DHT22;7386;45.586;12.854;2022-10-20T05:41:52;15.50;99.90
14600;DHT22;7386;45.586;12.854;2022-10-20T05:44:21;15.60;99.90
14600;DHT22;7386;45.586;12.854;2022-10-20T05:46:49;15.60;99.90
14600;DHT22;7386;45.586;12.854;2022-10-20T05:49:17;15.70;99.90
14600;DHT22;7386;45.586;12.854;2022-10-20T05:51:45;15.70;99.90
14600;DHT22;7386;45.586;12.854;2022-10-20T05:54:14;15.80;99.90
14600;DHT22;7386;45.586;12.854;2022-10-20T05:56:44;15.90;99.90
14600;DHT22;7386;45.586;12.854;2022-10-20T05:59:12;15.90;99.90
14600;DHT22;7386;45.586;12.854;2022-10-20T06:01:40;15.80;99.90
14600;DHT22;7386;45.586;12.854;2022-10-20T06:04:16;16.00;99.90
14600;DHT22;7386;45.586;12.854;2022-10-20T06:06:45;16.00;99.90
14600;DHT22;7386;45.586;12.854;2022-10-20T06:09:15;16.00;99.90
14600;DHT22;7386;45.586;12.854;2022-10-20T06:11:45;16.10;99.90
14600;DHT22;7386;45.586;12.854;2022-10-20T06:14:14;16.10;99.90
14600;DHT22;7386;45.586;12.854;2022-10-20T06:16:43;16.30;99.90
14600;DHT22;7386;45.586;12.854;2022-10-20T06:19:11;16.10;99.90
14600;DHT22;7386;45.586;12.854;2022-10-20T06:21:40;16.20;99.90
14600;DHT22;7386;45.586;12.854;2022-10-20T06:24:13;16.20;99.90
14600;DHT22;7386;45.586;12.854;2022-10-20T06:26:42;16.20;99.90
14600;DHT22;7386;45.586;12.854;2022-10-20T06:29:13;16.30;99.90
14600;DHT22;7386;45.586;12.854;2022-10-20T06:31:44;16.30;99.90
14600;DHT22;7386;45.586;12.854;2022-10-20T06:34:14;16.40;99.90
14600;DHT22;7386;45.586;12.854;2022-10-20T06:36:43;16.40;99.90
14600;DHT22;7386;45.586;12.854;2022-10-20T06:39:14;16.50;99.90
14600;DHT22;7386;45.586;12.854;2022-10-20T06:41:45;16.50;99.90
14600;DHT22;7386;45.586;12.854;2022-10-20T06:44:15;16.60;99.90
14600;DHT22;7386;45.586;12.854;2022-10-20T06:46:44;16.60;99.90
14600;DHT22;7386;45.586;12.854;2022-10-20T06:49:12;16.70;99.90
14600;DHT22;7386;45.586;12.854;2022-10-20T06:51:40;16.70;99.90
14600;DHT22;7386;45.586;12.854;2022-10-20T06:54:09;16.80;99.90
14600;DHT22;7386;45.586;12.854;2022-10-20T06:56:38;16.80;99.90
14600;DHT22;7386;45.586;12.854;2022-10-20T06:59:06;17.00;99.90
14600;DHT22;7386;45.586;12.854;2022-10-20T07:01:37;16.90;99.90
14600;DHT22;7386;45.586;12.854;2022-10-20T07:04:09;17.20;99.90
14600;DHT22;7386;45.586;12.854;2022-10-20T07:06:39;17.10;99.90
14600;DHT22;7386;45.586;12.854;2022-10-20T07:09:11;17.10;99.90
14600;DHT22;7386;45.586;12.854;2022-10-20T07:11:40;17.20;99.90
14600;DHT22;7386;45.586;12.854;2022-10-20T07:14:11;17.30;99.90
14600;DHT22;7386;45.586;12.854;2022-10-20T07:16:41;17.30;99.90
14600;DHT22;7386;45.586;12.854;2022-10-20T07:19:09;17.40;99.90
14600;DHT22;7386;45.586;12.854;2022-10-20T07:21:37;17.40;99.90
14600;DHT22;7386;45.586;12.854;2022-10-20T07:24:11;17.40;99.90
14600;DHT22;7386;45.586;12.854;2022-10-20T07:26:40;17.50;99.90
14600;DHT22;7386;45.586;12.854;2022-10-20T07:29:09;17.60;99.90
14600;DHT22;7386;45.586;12.854;2022-10-20T07:31:39;17.70;99.90
14600;DHT22;7386;45.586;12.854;2022-10-20T07:34:10;17.70;99.90
14600;DHT22;7386;45.586;12.854;2022-10-20T07:36:51;17.80;99.90
14600;DHT22;7386;45.586;12.854;2022-10-20T07:39:20;17.80;99.90
14600;DHT22;7386;45.586;12.854;2022-10-20T07:41:48;17.80;99.90
14600;DHT22;7386;45.586;12.854;2022-10-20T07:44:17;17.50;99.90
14600;DHT22;7386;45.586;12.854;2022-10-20T07:46:45;17.90;99.90
14600;DHT22;7386;45.586;12.854;2022-10-20T07:49:15;18.00;99.90
14600;DHT22;7386;45.586;12.854;2022-10-20T07:52:03;18.00;99.90
14600;DHT22;7386;45.586;12.854;2022-10-20T07:54:31;18.00;99.90
14600;DHT22;7386;45.586;12.854;2022-10-20T07:57:00;18.10;99.90
14600;DHT22;7386;45.586;12.854;2022-10-20T07:59:28;18.20;99.90
14600;DHT22;7386;45.586;12.854;2022-10-20T08:01:56;18.10;99.90
14600;DHT22;7386;45.586;12.854;2022-10-20T08:04:27;18.30;99.90
14600;DHT22;7386;45.586;12.854;2022-10-20T08:06:58;18.20;99.90
14600;DHT22;7386;45.586;12.854;2022-10-20T08:09:26;18.30;99.90
14600;DHT22;7386;45.586;12.854;2022-10-20T08:11:55;18.30;99.90
14600;DHT22;7386;45.586;12.854;2022-10-20T08:14:23;18.30;99.90
14600;DHT22;7386;45.586;12.854;2022-10-20T08:16:53;18.40;99.90
14600;DHT22;7386;45.586;12.854;2022-10-20T08:19:33;18.40;99.90
14600;DHT22;7386;45.586;12.854;2022-10-20T08:22:18;18.40;99.90
14600;DHT22;7386;45.586;12.854;2022-10-20T08:24:46;18.50;99.90
14600;DHT22;7386;45.586;12.854;2022-10-20T08:27:15;18.50;99.90
14600;DHT22;7386;45.586;12.854;2022-10-20T08:29:43;18.60;99.90
14600;DHT22;7386;45.586;12.854;2022-10-20T08:32:31;18.50;99.90
14600;DHT22;7386;45.586;12.854;2022-10-20T08:35:01;18.60;99.90
14600;DHT22;7386;45.586;12.854;2022-10-20T08:37:29;18.60;99.90
14600;DHT22;7386;45.586;12.854;2022-10-20T08:39:57;18.60;99.90
14600;DHT22;7386;45.586;12.854;2022-10-20T08:42:26;18.60;99.90
14600;DHT22;7386;45.586;12.854;2022-10-20T08:44:57;18.60;99.90
14600;DHT22;7386;45.586;12.854;2022-10-20T08:47:29;18.70;99.90
14600;DHT22;7386;45.586;12.854;2022-10-20T08:50:02;18.70;99.90
14600;DHT22;7386;45.586;12.854;2022-10-20T08:52:31;18.70;99.90
14600;DHT22;7386;45.586;12.854;2022-10-20T08:55:03;18.70;99.90
14600;DHT22;7386;45.586;12.854;2022-10-20T08:57:32;18.80;99.90
14600;DHT22;7386;45.586;12.854;2022-10-20T09:00:13;18.80;99.90
14600;DHT22;7386;45.586;12.854;2022-10-20T09:02:42;18.80;99.90
14600;DHT22;7386;45.586;12.854;2022-10-20T09:05:13;18.80;99.90
14600;DHT22;7386;45.586;12.854;2022-10-20T09:07:45;18.90;99.90
14600;DHT22;7386;45.586;12.854;2022-10-20T09:10:24;18.90;99.90
14600;DHT22;7386;45.586;12.854;2022-10-20T09:12:53;19.00;99.90
14600;DHT22;7386;45.586;12.854;2022-10-20T09:15:23;18.90;99.90
14600;DHT22;7386;45.586;12.854;2022-10-20T09:17:54;19.00;99.90
14600;DHT22;7386;45.586;12.854;2022-10-20T09:20:28;19.10;99.90
14600;DHT22;7386;45.586;12.854;2022-10-20T09:22:58;19.10;99.90
14600;DHT22;7386;45.586;12.854;2022-10-20T09:25:30;19.10;99.90
14600;DHT22;7386;45.586;12.854;2022-10-20T09:27:59;19.20;99.90
14600;DHT22;7386;45.586;12.854;2022-10-20T09:30:32;19.20;99.90
14600;DHT22;7386;45.586;12.854;2022-10-20T09:33:19;19.20;99.90
14600;DHT22;7386;45.586;12.854;2022-10-20T09:35:49;19.20;99.90
14600;DHT22;7386;45.586;12.854;2022-10-20T09:38:21;19.20;99.90
14600;DHT22;7386;45.586;12.854;2022-10-20T09:40:57;19.20;99.90
14600;DHT22;7386;45.586;12.854;2022-10-20T09:43:28;19.20;99.90
14600;DHT22;7386;45.586;12.854;2022-10-20T09:46:03;19.20;99.90
14600;DHT22;7386;45.586;12.854;2022-10-20T09:48:35;19.20;99.90
14600;DHT22;7386;45.586;12.854;2022-10-20T09:51:07;19.20;99.90
14600;DHT22;7386;45.586;12.854;2022-10-20T09:53:49;19.30;99.90
14600;DHT22;7386;45.586;12.854;2022-10-20T09:56:29;19.20;99.90
14600;DHT22;7386;45.586;12.854;2022-10-20T09:59:00;19.20;99.90
14600;DHT22;7386;45.586;12.854;2022-10-20T10:01:29;19.20;99.90
14600;DHT22;7386;45.586;12.854;2022-10-20T10:03:58;19.20;99.90
14600;DHT22;7386;45.586;12.854;2022-10-20T10:06:38;19.20;99.90
14600;DHT22;7386;45.586;12.854;2022-10-20T10:09:27;19.20;99.90
14600;DHT22;7386;45.586;12.854;2022-10-20T10:11:59;19.20;99.90
14600;DHT22;7386;45.586;12.854;2022-10-20T10:14:29;19.30;99.90
14600;DHT22;7386;45.586;12.854;2022-10-20T10:16:59;19.20;99.90
14600;DHT22;7386;45.586;12.854;2022-10-20T10:19:30;19.30;99.90
14600;DHT22;7386;45.586;12.854;2022-10-20T10:22:01;19.30;99.90
14600;DHT22;7386;45.586;12.854;2022-10-20T10:24:38;19.40;99.90
14600;DHT22;7386;45.586;12.854;2022-10-20T10:27:23;19.30;99.90
14600;DHT22;7386;45.586;12.854;2022-10-20T10:29:51;19.40;99.90
14600;DHT22;7386;45.586;12.854;2022-10-20T10:32:23;19.40;99.90
14600;DHT22;7386;45.586;12.854;2022-10-20T10:35:01;19.40;99.90
14600;DHT22;7386;45.586;12.854;2022-10-20T10:37:36;19.40;99.90
14600;DHT22;7386;45.586;12.854;2022-10-20T10:40:13;19.50;99.50
14600;DHT22;7386;45.586;12.854;2022-10-20T10:42:59;19.40;99.50
14600;DHT22;7386;45.586;12.854;2022-10-20T10:45:45;19.40;99.40
14600;DHT22;7386;45.586;12.854;2022-10-20T10:48:34;19.40;99.40
14600;DHT22;7386;45.586;12.854;2022-10-20T10:51:09;19.50;99.20
14600;DHT22;7386;45.586;12.854;2022-10-20T10:53:52;19.50;99.10
14600;DHT22;7386;45.586;12.854;2022-10-20T10:56:28;19.50;98.90
14600;DHT22;7386;45.586;12.854;2022-10-20T10:59:04;19.50;98.80
14600;DHT22;7386;45.586;12.854;2022-10-20T11:02:01;19.50;98.90
14600;DHT22;7386;45.586;12.854;2022-10-20T11:04:50;19.50;98.90
14600;DHT22;7386;45.586;12.854;2022-10-20T11:07:28;19.60;98.80
14600;DHT22;7386;45.586;12.854;2022-10-20T11:10:07;19.70;99.00
14600;DHT22;7386;45.586;12.854;2022-10-20T11:13:02;19.60;98.90
14600;DHT22;7386;45.586;12.854;2022-10-20T11:15:44;19.70;99.00
14600;DHT22;7386;45.586;12.854;2022-10-20T11:18:47;19.70;98.80
14600;DHT22;7386;45.586;12.854;2022-10-20T11:21:24;19.70;98.70
14600;DHT22;7386;45.586;12.854;2022-10-20T11:24:07;19.70;98.60
14600;DHT22;7386;45.586;12.854;2022-10-20T11:26:42;19.70;98.60
14600;DHT22;7386;45.586;12.854;2022-10-20T11:29:15;19.70;98.70
14600;DHT22;7386;45.586;12.854;2022-10-20T11:31:49;19.80;98.90
14600;DHT22;7386;45.586;12.854;2022-10-20T11:34:26;19.80;98.80
14600;DHT22;7386;45.586;12.854;2022-10-20T11:37:01;19.80;98.60
14600;DHT22;7386;45.586;12.854;2022-10-20T11:39:36;19.80;98.50
14600;DHT22;7386;45.586;12.854;2022-10-20T11:42:18;19.80;98.50
14600;DHT22;7386;45.586;12.854;2022-10-20T11:44:51;19.80;98.50
14600;DHT22;7386;45.586;12.854;2022-10-20T11:47:26;19.90;98.60
14600;DHT22;7386;45.586;12.854;2022-10-20T11:49:57;19.80;98.50
14600;DHT22;7386;45.586;12.854;2022-10-20T11:52:54;19.90;98.70
14600;DHT22;7386;45.586;12.854;2022-10-20T11:55:35;19.90;98.60
14600;DHT22;7386;45.586;12.854;2022-10-20T11:58:20;19.90;98.50
14600;DHT22;7386;45.586;12.854;2022-10-20T12:00:58;19.90;98.50
14600;DHT22;7386;45.586;12.854;2022-10-20T12:07:30;19.90;98.10
14600;DHT22;7386;45.586;12.854;2022-10-20T12:10:24;19.90;98.10
14600;DHT22;7386;45.586;12.854;2022-10-20T12:13:01;19.90;97.90
14600;DHT22;7386;45.586;12.854;2022-10-20T12:15:33;19.90;97.90
14600;DHT22;7386;45.586;12.854;2022-10-20T12:18:18;20.00;97.70
14600;DHT22;7386;45.586;12.854;2022-10-20T12:20:52;20.00;97.90
14600;DHT22;7386;45.586;12.854;2022-10-20T12:23:52;19.90;97.80
14600;DHT22;7386;45.586;12.854;2022-10-20T12:29:50;20.10;98.20
14600;DHT22;7386;45.586;12.854;2022-10-20T12:32:36;20.10;98.30
14600;DHT22;7386;45.586;12.854;2022-10-20T12:38:15;20.10;98.40
14600;DHT22;7386;45.586;12.854;2022-10-20T12:40:49;20.20;98.60
14600;DHT22;7386;45.586;12.854;2022-10-20T12:43:30;20.20;98.60
14600;DHT22;7386;45.586;12.854;2022-10-20T12:46:05;20.20;98.70
14600;DHT22;7386;45.586;12.854;2022-10-20T12:48:41;20.20;98.70
14600;DHT22;7386;45.586;12.854;2022-10-20T12:51:21;20.10;98.60
14600;DHT22;7386;45.586;12.854;2022-10-20T12:53:53;20.10;98.60
14600;DHT22;7386;45.586;12.854;2022-10-20T12:56:22;20.10;98.60
14600;DHT22;7386;45.586;12.854;2022-10-20T12:59:22;20.10;98.60
14600;DHT22;7386;45.586;12.854;2022-10-20T13:05:38;20.20;98.70
14600;DHT22;7386;45.586;12.854;2022-10-20T13:08:31;20.20;98.70
14600;DHT22;7386;45.586;12.854;2022-10-20T13:17:34;20.20;98.70
14600;DHT22;7386;45.586;12.854;2022-10-20T13:20:18;20.20;98.70
14600;DHT22;7386;45.586;12.854;2022-10-20T13:22:50;20.30;98.80
14600;DHT22;7386;45.586;12.854;2022-10-20T13:25:36;20.30;98.70
14600;DHT22;7386;45.586;12.854;2022-10-20T13:28:18;20.30;98.80
14600;DHT22;7386;45.586;12.854;2022-10-20T13:31:08;20.30;98.80
14600;DHT22;7386;45.586;12.854;2022-10-20T13:33:41;20.30;98.80
14600;DHT22;7386;45.586;12.854;2022-10-20T13:36:51;20.40;98.80
14600;DHT22;7386;45.586;12.854;2022-10-20T13:39:29;20.30;98.80
14600;DHT22;7386;45.586;12.854;2022-10-20T13:42:03;20.50;98.90
14600;DHT22;7386;45.586;12.854;2022-10-20T13:44:42;20.40;98.90
14600;DHT22;7386;45.586;12.854;2022-10-20T13:47:32;20.40;99.00
14600;DHT22;7386;45.586;12.854;2022-10-20T13:50:09;20.50;99.10
14600;DHT22;7386;45.586;12.854;2022-10-20T13:52:41;20.50;99.20
14600;DHT22;7386;45.586;12.854;2022-10-20T13:55:17;20.50;99.30
14600;DHT22;7386;45.586;12.854;2022-10-20T13:57:52;20.50;99.30
14600;DHT22;7386;45.586;12.854;2022-10-20T14:00:24;20.50;99.50
14600;DHT22;7386;45.586;12.854;2022-10-20T14:02:58;20.60;99.60
14600;DHT22;7386;45.586;12.854;2022-10-20T14:05:28;20.50;99.40
14600;DHT22;7386;45.586;12.854;2022-10-20T14:07:59;20.60;99.60
14600;DHT22;7386;45.586;12.854;2022-10-20T14:10:38;20.60;99.60
14600;DHT22;7386;45.586;12.854;2022-10-20T14:13:13;20.50;99.60
14600;DHT22;7386;45.586;12.854;2022-10-20T14:15:45;20.50;99.60
14600;DHT22;7386;45.586;12.854;2022-10-20T14:18:22;20.50;99.70
14600;DHT22;7386;45.586;12.854;2022-10-20T14:20:56;20.60;99.80
14600;DHT22;7386;45.586;12.854;2022-10-20T14:23:28;20.60;99.80
14600;DHT22;7386;45.586;12.854;2022-10-20T14:25:59;20.50;99.80
14600;DHT22;7386;45.586;12.854;2022-10-20T14:28:30;20.50;99.80
14600;DHT22;7386;45.586;12.854;2022-10-20T14:31:00;20.50;99.90
14600;DHT22;7386;45.586;12.854;2022-10-20T14:33:29;20.50;99.90
14600;DHT22;7386;45.586;12.854;2022-10-20T14:36:00;20.50;99.80
14600;DHT22;7386;45.586;12.854;2022-10-20T14:38:33;20.50;99.80
14600;DHT22;7386;45.586;12.854;2022-10-20T14:41:05;20.40;99.70
14600;DHT22;7386;45.586;12.854;2022-10-20T14:43:37;20.40;99.70
14600;DHT22;7386;45.586;12.854;2022-10-20T14:46:07;20.40;99.70
14600;DHT22;7386;45.586;12.854;2022-10-20T14:48:41;20.40;99.80
14600;DHT22;7386;45.586;12.854;2022-10-20T14:51:32;20.40;99.80
14600;DHT22;7386;45.586;12.854;2022-10-20T14:54:14;20.40;99.80
14600;DHT22;7386;45.586;12.854;2022-10-20T14:56:47;20.30;99.80
14600;DHT22;7386;45.586;12.854;2022-10-20T14:59:17;20.30;99.80
14600;DHT22;7386;45.586;12.854;2022-10-20T15:01:56;20.30;99.90
14600;DHT22;7386;45.586;12.854;2022-10-20T15:04:28;20.30;99.90
14600;DHT22;7386;45.586;12.854;2022-10-20T15:07:04;20.20;99.90
14600;DHT22;7386;45.586;12.854;2022-10-20T15:09:37;20.20;99.90
14600;DHT22;7386;45.586;12.854;2022-10-20T15:12:14;20.20;99.90
14600;DHT22;7386;45.586;12.854;2022-10-20T15:14:45;20.10;99.90
14600;DHT22;7386;45.586;12.854;2022-10-20T15:17:34;20.10;99.90
14600;DHT22;7386;45.586;12.854;2022-10-20T15:20:31;20.10;99.90
14600;DHT22;7386;45.586;12.854;2022-10-20T15:23:01;20.00;99.90
14600;DHT22;7386;45.586;12.854;2022-10-20T15:25:31;20.00;99.90
14600;DHT22;7386;45.586;12.854;2022-10-20T15:28:01;20.00;99.90
14600;DHT22;7386;45.586;12.854;2022-10-20T15:30:30;20.00;99.90
14600;DHT22;7386;45.586;12.854;2022-10-20T15:32:58;20.00;99.90
14600;DHT22;7386;45.586;12.854;2022-10-20T15:35:27;19.90;99.90
14600;DHT22;7386;45.586;12.854;2022-10-20T15:37:56;19.90;99.90
14600;DHT22;7386;45.586;12.854;2022-10-20T15:40:24;19.90;99.90
14600;DHT22;7386;45.586;12.854;2022-10-20T15:42:53;19.90;99.90
14600;DHT22;7386;45.586;12.854;2022-10-20T15:45:24;19.90;99.90
14600;DHT22;7386;45.586;12.854;2022-10-20T15:47:52;19.80;99.90
14600;DHT22;7386;45.586;12.854;2022-10-20T15:50:20;19.60;99.90
14600;DHT22;7386;45.586;12.854;2022-10-20T15:52:50;19.80;99.90
14600;DHT22;7386;45.586;12.854;2022-10-20T15:55:21;19.80;99.90
14600;DHT22;7386;45.586;12.854;2022-10-20T15:57:52;19.70;99.90
14600;DHT22;7386;45.586;12.854;2022-10-20T16:00:23;19.70;99.90
14600;DHT22;7386;45.586;12.854;2022-10-20T16:02:52;19.70;99.90
14600;DHT22;7386;45.586;12.854;2022-10-20T16:05:22;19.70;99.90
14600;DHT22;7386;45.586;12.854;2022-10-20T16:07:50;19.60;99.90
14600;DHT22;7386;45.586;12.854;2022-10-20T16:10:20;19.60;99.90
14600;DHT22;7386;45.586;12.854;2022-10-20T16:12:49;19.60;99.90
14600;DHT22;7386;45.586;12.854;2022-10-20T16:15:17;19.50;99.90
14600;DHT22;7386;45.586;12.854;2022-10-20T16:17:47;19.50;99.90
14600;DHT22;7386;45.586;12.854;2022-10-20T16:20:20;19.80;99.90
14600;DHT22;7386;45.586;12.854;2022-10-20T16:22:48;19.40;99.90
14600;DHT22;7386;45.586;12.854;2022-10-20T16:25:17;19.40;99.90
14600;DHT22;7386;45.586;12.854;2022-10-20T16:27:45;19.30;99.90
14600;DHT22;7386;45.586;12.854;2022-10-20T16:30:13;19.30;99.90